Time;durP1;ratioP1;P1;durP2;ratioP2;P2;SDS_P1;SDS_P2;PMS_P1;PMS_P2;Temp;Humidity;BMP_temperature;BMP_pressure;BME280_temperature;BME280_humidity;BME280_pressure;Samples;Min_cycle;Max_cycle;Signal;HPM_P1;HPM_P2
2023/05/12 00:01:13;;;;;;;0.00;0.00;;;12.40;99.90;;;;;;5010116;28;20088;-75
2023/05/12 00:03:39;;;;;;;0.00;0.00;;;12.40;99.90;;;;;;5004229;28;20513;-75
2023/05/12 00:06:05;;;;;;;0.00;0.00;;;12.40;99.90;;;;;;5007369;28;20030;-77
2023/05/12 00:08:32;;;;;;;0.00;0.00;;;12.40;99.90;;;;;;5004114;28;20118;-75
2023/05/12 00:10:57;;;;;;;;;;;12.40;99.90;;;;;;5007760;28;20366;-75
2023/05/12 00:13:23;;;;;;;0.00;0.00;;;12.50;99.90;;;;;;5013217;28;20363;-75
2023/05/12 00:15:50;;;;;;;0.00;0.00;;;12.50;99.90;;;;;;5005925;28;20022;-75
2023/05/12 00:18:15;;;;;;;0.00;0.00;;;12.40;99.90;;;;;;5009781;28;20642;-76
2023/05/12 00:20:42;;;;;;;0.00;0.00;;;12.30;99.90;;;;;;5017675;28;20025;-75
2023/05/12 00:23:08;;;;;;;;;;;12.40;99.90;;;;;;5012954;28;20120;-75
2023/05/12 00:25:39;;;;;;;0.00;0.00;;;12.40;99.90;;;;;;5015265;28;19996;-75
2023/05/12 00:28:05;;;;;;;0.00;0.00;;;12.40;99.90;;;;;;5017217;28;20025;-75
2023/05/12 00:30:32;;;;;;;0.00;0.00;;;12.40;99.90;;;;;;5021714;28;20024;-75
2023/05/12 00:33:00;;;;;;;;;;;12.40;99.90;;;;;;5013037;28;20097;-75
2023/05/12 00:35:27;;;;;;;0.00;0.00;;;12.30;99.90;;;;;;5011439;28;19905;-75
2023/05/12 00:37:53;;;;;;;;;;;12.30;99.90;;;;;;5008216;28;20014;-75
2023/05/12 00:40:19;;;;;;;0.00;0.00;;;12.20;99.90;;;;;;5018476;28;19913;-75
2023/05/12 00:42:48;;;;;;;;;;;12.20;99.90;;;;;;5011008;28;20033;-75
2023/05/12 00:45:16;;;;;;;0.00;0.00;;;12.20;99.90;;;;;;5010826;28;20022;-76
2023/05/12 00:47:45;;;;;;;0.00;0.00;;;12.20;99.90;;;;;;5012201;28;20407;-76
2023/05/12 00:50:11;;;;;;;0.00;0.00;;;12.20;99.90;;;;;;5024607;28;20113;-75
2023/05/12 00:52:39;;;;;;;0.00;0.00;;;12.10;99.90;;;;;;5012146;28;20378;-74
2023/05/12 00:55:05;;;;;;;0.00;0.00;;;12.10;99.90;;;;;;5007865;28;20105;-75
2023/05/12 00:57:32;;;;;;;0.00;0.00;;;12.10;99.90;;;;;;5014264;28;20035;-75
2023/05/12 00:59:58;;;;;;;0.00;0.00;;;12.20;99.90;;;;;;5011007;28;20038;-75
2023/05/12 01:02:24;;;;;;;0.00;0.00;;;12.10;99.90;;;;;;5011156;28;20017;-75
2023/05/12 01:04:53;;;;;;;0.00;0.00;;;11.90;99.90;;;;;;5013519;28;20014;-75
2023/05/12 01:07:24;;;;;;;0.00;0.00;;;11.90;99.90;;;;;;5010616;28;20165;-74
2023/05/12 01:09:54;;;;;;;0.00;0.00;;;11.90;99.90;;;;;;5011976;28;20029;-74
2023/05/12 01:12:22;;;;;;;0.00;0.00;;;11.70;99.90;;;;;;5023410;28;20025;-75
2023/05/12 01:14:52;;;;;;;0.00;0.00;;;11.60;99.90;;;;;;5007435;28;20022;-75
2023/05/12 01:17:31;;;;;;;0.00;0.00;;;11.60;99.90;;;;;;5007254;28;20045;-75
2023/05/12 01:20:03;;;;;;;0.00;0.00;;;11.40;99.90;;;;;;5005238;28;20514;-74
2023/05/12 01:22:30;;;;;;;0.00;0.00;;;11.40;99.90;;;;;;5011870;28;20026;-74
2023/05/12 01:25:03;;;;;;;0.00;0.00;;;11.40;99.90;;;;;;5007116;28;20088;-74
2023/05/12 01:27:33;;;;;;;0.05;0.05;;;11.40;99.90;;;;;;5023863;28;20362;-75
2023/05/12 01:30:02;;;;;;;0.22;0.22;;;11.40;99.90;;;;;;5008265;28;20025;-75
2023/05/12 01:32:29;;;;;;;0.17;0.17;;;11.30;99.90;;;;;;5013298;28;20029;-75
2023/05/12 01:34:55;;;;;;;0.00;0.00;;;11.20;99.90;;;;;;5028627;28;20060;-75
2023/05/12 01:37:25;;;;;;;0.30;0.30;;;11.20;99.90;;;;;;5021117;28;20112;-74
2023/05/12 01:39:52;;;;;;;0.10;0.10;;;11.20;99.90;;;;;;5026554;28;20898;-74
2023/05/12 01:42:24;;;;;;;0.00;0.00;;;11.30;99.90;;;;;;5013567;28;20038;-74
2023/05/12 01:44:50;;;;;;;0.00;0.00;;;11.20;99.90;;;;;;5011537;28;20022;-75
2023/05/12 01:47:15;;;;;;;1.63;1.53;;;11.20;99.90;;;;;;5013305;28;20056;-75
2023/05/12 01:49:41;;;;;;;0.10;0.10;;;11.20;99.90;;;;;;5012946;28;20033;-74
2023/05/12 01:52:07;;;;;;;0.10;0.10;;;11.20;99.90;;;;;;5012681;28;20030;-74
2023/05/12 01:54:33;;;;;;;0.07;0.07;;;11.10;99.90;;;;;;5014774;28;20105;-74
2023/05/12 01:57:03;;;;;;;;;;;11.00;99.90;;;;;;5014073;28;20107;-75
2023/05/12 01:59:34;;;;;;;0.00;0.00;;;11.00;99.90;;;;;;5007509;28;20497;-75
2023/05/12 02:01:59;;;;;;;0.00;0.00;;;10.90;99.90;;;;;;5013273;28;20040;-75
2023/05/12 02:04:25;;;;;;;0.00;0.00;;;11.00;99.90;;;;;;5022097;28;20022;-75
2023/05/12 02:06:57;;;;;;;0.00;0.00;;;11.00;99.90;;;;;;5012760;28;20277;-75
2023/05/12 02:09:23;;;;;;;0.00;0.00;;;10.90;99.90;;;;;;5012525;28;20143;-74
2023/05/12 02:11:53;;;;;;;;;;;11.00;99.90;;;;;;5011498;28;20029;-74
2023/05/12 02:14:18;;;;;;;0.00;0.00;;;10.90;99.90;;;;;;5005664;28;19913;-74
2023/05/12 02:16:48;;;;;;;0.00;0.00;;;11.00;99.90;;;;;;5014441;28;20025;-75
2023/05/12 02:19:16;;;;;;;0.00;0.00;;;10.90;99.90;;;;;;5008060;28;20083;-74
2023/05/12 02:21:44;;;;;;;0.00;0.00;;;10.80;99.90;;;;;;5015047;28;20026;-74
2023/05/12 02:24:11;;;;;;;0.00;0.00;;;10.90;99.90;;;;;;5034795;28;20428;-74
2023/05/12 02:26:38;;;;;;;;;;;10.90;99.90;;;;;;5012429;28;20018;-74
2023/05/12 02:29:04;;;;;;;0.00;0.00;;;11.00;99.90;;;;;;5021776;28;20347;-74
2023/05/12 02:31:31;;;;;;;;;;;10.90;99.90;;;;;;5013469;28;20025;-74
2023/05/12 02:33:57;;;;;;;0.60;0.60;;;10.90;99.90;;;;;;5003894;28;19985;-74
2023/05/12 02:36:25;;;;;;;0.10;0.10;;;10.90;99.90;;;;;;5016986;28;20460;-74
2023/05/12 02:38:51;;;;;;;0.00;0.00;;;10.90;99.90;;;;;;5015178;28;20704;-74
2023/05/12 02:41:17;;;;;;;0.00;0.00;;;10.90;99.90;;;;;;5008612;28;20152;-74
2023/05/12 02:43:42;;;;;;;0.00;0.00;;;10.80;99.90;;;;;;5023772;28;20025;-74
2023/05/12 02:46:08;;;;;;;0.45;0.30;;;11.00;99.90;;;;;;5024586;28;20104;-73
2023/05/12 02:48:35;;;;;;;0.20;0.20;;;10.80;99.90;;;;;;5013704;28;20052;-74
2023/05/12 02:51:00;;;;;;;;;;;10.80;99.90;;;;;;5010875;28;20425;-74
2023/05/12 02:53:26;;;;;;;0.00;0.00;;;10.70;99.90;;;;;;5025583;28;19954;-74
2023/05/12 02:55:53;;;;;;;0.00;0.00;;;10.70;99.90;;;;;;5005474;28;20384;-74
2023/05/12 02:58:19;;;;;;;;;;;10.70;99.90;;;;;;5031423;28;20140;-74
2023/05/12 03:00:46;;;;;;;0.35;0.35;;;10.70;99.90;;;;;;5011526;28;20352;-74
2023/05/12 03:03:12;;;;;;;;;;;10.70;99.90;;;;;;5017878;28;20071;-74
2023/05/12 03:05:38;;;;;;;0.00;0.00;;;10.70;99.90;;;;;;5007353;28;19948;-73
2023/05/12 03:08:04;;;;;;;0.00;0.00;;;10.70;99.90;;;;;;5012717;28;20056;-74
2023/05/12 03:10:31;;;;;;;;;;;10.70;99.90;;;;;;5020280;28;20017;-74
2023/05/12 03:13:04;;;;;;;0.13;0.13;;;10.70;99.90;;;;;;5016997;28;19905;-74
2023/05/12 03:15:31;;;;;;;0.00;0.00;;;10.60;99.90;;;;;;5001351;28;20028;-74
2023/05/12 03:17:57;;;;;;;;;;;10.70;99.90;;;;;;5017706;28;20033;-74
2023/05/12 03:20:22;;;;;;;0.00;0.00;;;10.70;99.90;;;;;;5011127;28;19922;-74
2023/05/12 03:22:49;;;;;;;0.07;0.07;;;10.70;99.90;;;;;;5018760;28;20088;-74
2023/05/12 03:25:15;;;;;;;0.10;0.10;;;10.60;99.90;;;;;;5014379;28;20112;-74
2023/05/12 03:27:44;;;;;;;0.25;0.25;;;10.70;99.90;;;;;;5033776;28;20527;-73
2023/05/12 03:30:11;;;;;;;0.55;0.28;;;10.60;99.90;;;;;;5014153;28;20088;-74
2023/05/12 03:32:38;;;;;;;0.00;0.00;;;10.60;99.90;;;;;;5006031;28;20018;-74
2023/05/12 03:35:04;;;;;;;;;;;10.60;99.90;;;;;;5023669;28;20009;-74
2023/05/12 03:37:32;;;;;;;1.15;1.08;;;10.70;99.90;;;;;;5012538;28;19905;-74
2023/05/12 03:39:57;;;;;;;0.55;0.32;;;10.60;99.90;;;;;;5012279;28;20045;-74
2023/05/12 03:42:25;;;;;;;0.20;0.20;;;10.60;99.90;;;;;;5017909;28;20028;-73
2023/05/12 03:44:51;;;;;;;0.22;0.10;;;10.60;99.90;;;;;;5011300;28;20098;-75
2023/05/12 03:47:17;;;;;;;0.00;0.00;;;10.60;99.90;;;;;;5017322;28;20463;-73
2023/05/12 03:49:44;;;;;;;0.63;0.30;;;10.60;99.90;;;;;;5009863;28;20478;-74
2023/05/12 03:52:11;;;;;;;0.00;0.00;;;10.60;99.90;;;;;;5003829;28;20423;-73
2023/05/12 03:54:37;;;;;;;0.00;0.00;;;10.60;99.90;;;;;;5008815;28;20119;-73
2023/05/12 03:57:02;;;;;;;0.00;0.00;;;10.60;99.90;;;;;;5011860;28;20655;-73
2023/05/12 03:59:31;;;;;;;0.40;0.40;;;10.60;99.90;;;;;;5022913;28;20083;-74
2023/05/12 04:01:58;;;;;;;0.10;0.10;;;10.60;99.90;;;;;;5008785;28;20033;-74
2023/05/12 04:04:24;;;;;;;;;;;10.50;99.90;;;;;;5021004;28;20034;-74
2023/05/12 04:06:51;;;;;;;2.92;0.20;;;10.50;99.90;;;;;;5007956;28;20515;-73
2023/05/12 04:09:17;;;;;;;0.55;0.55;;;10.70;99.90;;;;;;5013303;28;20096;-74
2023/05/12 04:11:43;;;;;;;0.10;0.10;;;10.60;99.90;;;;;;5011433;28;20857;-73
2023/05/12 04:14:09;;;;;;;0.00;0.00;;;10.60;99.90;;;;;;5005615;28;20036;-74
2023/05/12 04:16:35;;;;;;;;;;;10.50;99.90;;;;;;5012454;28;20523;-74
2023/05/12 04:19:02;;;;;;;0.00;0.00;;;10.60;99.90;;;;;;5010281;28;19905;-74
2023/05/12 04:21:28;;;;;;;0.00;0.00;;;10.60;99.90;;;;;;5022795;28;20044;-73
2023/05/12 04:23:53;;;;;;;0.00;0.00;;;10.50;99.90;;;;;;5017059;28;20029;-74
2023/05/12 04:26:19;;;;;;;0.00;0.00;;;10.60;99.90;;;;;;5023987;28;20307;-74
2023/05/12 04:28:47;;;;;;;0.00;0.00;;;10.60;99.90;;;;;;5009474;28;20040;-74
2023/05/12 04:31:14;;;;;;;0.45;0.38;;;10.60;99.90;;;;;;5020497;28;20064;-74
2023/05/12 04:33:40;;;;;;;0.00;0.00;;;10.50;99.90;;;;;;5008230;28;20018;-74
2023/05/12 04:36:06;;;;;;;0.00;0.00;;;10.50;99.90;;;;;;5013471;28;20079;-74
2023/05/12 04:38:32;;;;;;;0.00;0.00;;;10.50;99.90;;;;;;5020939;28;20026;-74
2023/05/12 04:40:59;;;;;;;0.00;0.00;;;10.60;99.90;;;;;;5009763;28;20051;-74
2023/05/12 04:43:27;;;;;;;0.00;0.00;;;10.60;99.90;;;;;;5005804;28;20048;-74
2023/05/12 04:45:54;;;;;;;0.38;0.38;;;10.60;99.90;;;;;;5014415;28;20034;-74
2023/05/12 04:48:20;;;;;;;0.30;0.30;;;10.60;99.90;;;;;;5004130;28;20115;-73
2023/05/12 04:50:50;;;;;;;0.00;0.00;;;10.70;99.90;;;;;;5012114;28;20044;-74
2023/05/12 04:53:17;;;;;;;0.00;0.00;;;10.70;99.90;;;;;;5007544;28;20490;-73
2023/05/12 04:55:44;;;;;;;0.00;0.00;;;10.60;99.90;;;;;;5003959;28;20171;-73
2023/05/12 04:58:15;;;;;;;0.00;0.00;;;10.60;99.90;;;;;;5018049;28;20021;-74
2023/05/12 05:00:40;;;;;;;0.00;0.00;;;10.60;99.90;;;;;;5022597;28;20025;-74
2023/05/12 05:03:06;;;;;;;0.00;0.00;;;10.60;99.90;;;;;;5020295;28;20018;-74
2023/05/12 05:05:32;;;;;;;0.00;0.00;;;10.60;99.90;;;;;;5008923;28;20061;-74
2023/05/12 05:07:59;;;;;;;0.47;0.47;;;10.60;99.90;;;;;;5005847;28;20080;-74
2023/05/12 05:10:25;;;;;;;;;;;10.50;99.90;;;;;;5011629;28;20018;-75
2023/05/12 05:12:51;;;;;;;0.00;0.00;;;10.50;99.90;;;;;;5005800;28;20359;-74
2023/05/12 05:15:18;;;;;;;0.00;0.00;;;10.50;99.90;;;;;;5013033;28;20061;-74
2023/05/12 05:17:48;;;;;;;0.00;0.00;;;10.50;99.90;;;;;;5020274;28;20025;-74
2023/05/12 05:20:13;;;;;;;0.45;0.30;;;10.50;99.90;;;;;;5010315;28;20021;-74
2023/05/12 05:22:40;;;;;;;0.15;0.15;;;10.50;99.90;;;;;;5008339;28;20029;-74
2023/05/12 05:25:06;;;;;;;;;;;10.50;99.90;;;;;;5010587;28;20488;-75
2023/05/12 05:27:32;;;;;;;0.00;0.00;;;10.50;99.90;;;;;;5021088;28;20000;-74
2023/05/12 05:29:58;;;;;;;0.00;0.00;;;10.50;99.90;;;;;;5022376;28;20029;-73
2023/05/12 05:32:25;;;;;;;0.00;0.00;;;10.60;99.90;;;;;;5013302;28;20037;-74
2023/05/12 05:34:52;;;;;;;0.20;0.20;;;10.50;99.90;;;;;;5013738;28;20021;-74
2023/05/12 05:37:19;;;;;;;;;;;10.70;99.90;;;;;;5011368;28;20136;-81
2023/05/12 05:39:45;;;;;;;0.00;0.00;;;10.70;99.90;;;;;;5018189;28;19920;-74
2023/05/12 05:42:11;;;;;;;;;;;10.60;99.90;;;;;;5018287;28;20200;-74
2023/05/12 05:44:37;;;;;;;0.90;0.43;;;10.70;99.90;;;;;;5006097;28;19905;-74
2023/05/12 05:47:02;;;;;;;0.00;0.00;;;10.70;99.90;;;;;;5010659;28;20026;-74
2023/05/12 05:49:28;;;;;;;0.00;0.00;;;10.60;99.90;;;;;;5027282;28;20032;-74
2023/05/12 05:52:00;;;;;;;0.00;0.00;;;10.60;99.90;;;;;;5004665;28;20041;-73
2023/05/12 05:54:25;;;;;;;0.17;0.17;;;10.60;99.90;;;;;;5007826;28;20026;-74
2023/05/12 05:56:52;;;;;;;0.00;0.00;;;10.70;99.90;;;;;;5005712;28;20033;-73
2023/05/12 05:59:17;;;;;;;;;;;10.60;99.90;;;;;;5006051;28;20581;-74
2023/05/12 06:01:44;;;;;;;0.00;0.00;;;10.60;99.90;;;;;;5001626;28;19917;-74
2023/05/12 06:04:10;;;;;;;0.00;0.00;;;10.70;99.90;;;;;;5006088;28;20025;-74
2023/05/12 06:06:35;;;;;;;0.00;0.00;;;10.60;99.90;;;;;;5014484;28;20029;-74
2023/05/12 06:09:01;;;;;;;0.00;0.00;;;10.60;99.90;;;;;;5004915;28;20030;-74
2023/05/12 06:11:27;;;;;;;0.00;0.00;;;10.50;99.90;;;;;;5024843;28;20070;-73
2023/05/12 06:13:52;;;;;;;0.00;0.00;;;10.60;99.90;;;;;;5024915;28;20467;-74
2023/05/12 06:16:18;;;;;;;0.00;0.00;;;10.60;99.90;;;;;;5015217;28;20022;-74
2023/05/12 06:18:46;;;;;;;0.00;0.00;;;10.60;99.90;;;;;;5020048;28;20017;-73
2023/05/12 06:21:11;;;;;;;0.00;0.00;;;10.50;99.90;;;;;;5008569;28;20032;-73
2023/05/12 06:23:37;;;;;;;0.00;0.00;;;10.50;99.90;;;;;;5020168;28;20160;-74
2023/05/12 06:26:03;;;;;;;0.63;0.33;;;10.60;99.90;;;;;;5005261;28;20052;-74
2023/05/12 06:28:29;;;;;;;0.00;0.00;;;10.60;99.90;;;;;;5008522;28;20069;-73
2023/05/12 06:30:55;;;;;;;0.00;0.00;;;10.60;99.90;;;;;;5006215;28;20033;-73
2023/05/12 06:33:25;;;;;;;0.00;0.00;;;10.60;99.90;;;;;;5016065;28;20125;-74
2023/05/12 06:35:52;;;;;;;0.00;0.00;;;10.70;99.90;;;;;;5008725;28;20018;-74
2023/05/12 06:38:18;;;;;;;;;;;10.70;99.90;;;;;;5005817;28;20109;-73
2023/05/12 06:40:43;;;;;;;0.00;0.00;;;10.70;99.90;;;;;;5005446;28;20059;-73
2023/05/12 06:43:09;;;;;;;0.00;0.00;;;10.70;99.90;;;;;;5024814;28;20467;-73
2023/05/12 06:45:36;;;;;;;0.10;0.10;;;10.60;99.90;;;;;;5006544;28;20057;-74
2023/05/12 06:48:04;;;;;;;;;;;10.70;99.90;;;;;;5003266;28;20026;-73
2023/05/12 06:50:30;;;;;;;0.00;0.00;;;10.70;99.90;;;;;;5004449;28;19916;-74
2023/05/12 06:52:59;;;;;;;0.00;0.00;;;10.70;99.90;;;;;;5009645;28;20025;-74
2023/05/12 06:55:26;;;;;;;0.47;0.47;;;10.70;99.90;;;;;;5009920;28;20518;-73
2023/05/12 06:57:54;;;;;;;;;;;10.70;99.90;;;;;;5017401;28;20026;-73
2023/05/12 07:00:24;;;;;;;0.00;0.00;;;10.80;99.90;;;;;;5019815;28;19913;-74
2023/05/12 07:02:50;;;;;;;1.20;0.55;;;10.70;99.90;;;;;;5010226;28;20032;-73
2023/05/12 07:05:17;;;;;;;0.00;0.00;;;10.80;99.90;;;;;;5002947;28;20456;-74
2023/05/12 07:07:44;;;;;;;0.00;0.00;;;10.90;99.90;;;;;;5020425;28;20139;-74
2023/05/12 07:10:11;;;;;;;0.00;0.00;;;10.80;99.90;;;;;;5017739;28;20356;-74
2023/05/12 07:12:38;;;;;;;;;;;10.80;99.90;;;;;;5010561;28;20045;-73
2023/05/12 07:15:04;;;;;;;2.63;1.20;;;10.80;99.90;;;;;;5038797;28;19916;-74
2023/05/12 07:17:29;;;;;;;0.00;0.00;;;10.80;99.90;;;;;;5006140;28;20033;-73
2023/05/12 07:19:55;;;;;;;0.00;0.00;;;10.80;99.90;;;;;;5001887;28;20088;-73
2023/05/12 07:22:26;;;;;;;0.00;0.00;;;10.80;99.90;;;;;;5006563;28;20483;-73
2023/05/12 07:24:52;;;;;;;0.00;0.00;;;10.90;99.90;;;;;;5006046;28;20427;-74
2023/05/12 07:27:18;;;;;;;;;;;11.00;99.90;;;;;;5008444;28;20475;-73
2023/05/12 07:29:43;;;;;;;0.00;0.00;;;11.00;99.90;;;;;;5008694;28;19920;-73
2023/05/12 07:32:09;;;;;;;0.23;0.23;;;11.00;99.90;;;;;;5008894;28;20423;-73
2023/05/12 07:34:35;;;;;;;0.00;0.00;;;10.90;99.90;;;;;;5008203;28;20455;-74
2023/05/12 07:37:02;;;;;;;0.00;0.00;;;11.00;99.90;;;;;;5005861;28;20065;-73
2023/05/12 07:39:31;;;;;;;0.13;0.13;;;11.00;99.90;;;;;;5006674;28;20061;-74
2023/05/12 07:41:57;;;;;;;0.00;0.00;;;11.00;99.90;;;;;;5002478;28;20044;-73
2023/05/12 07:44:23;;;;;;;0.22;0.22;;;10.90;99.90;;;;;;5017919;28;20033;-73
2023/05/12 07:46:48;;;;;;;0.10;0.10;;;11.00;99.90;;;;;;5000792;28;20034;-73
2023/05/12 07:49:14;;;;;;;0.00;0.00;;;10.80;99.90;;;;;;5005768;28;20079;-74
2023/05/12 07:51:40;;;;;;;0.00;0.00;;;10.80;99.90;;;;;;5015726;28;20021;-74
2023/05/12 07:54:06;;;;;;;0.00;0.00;;;10.90;99.90;;;;;;5003904;28;20084;-73
2023/05/12 07:56:32;;;;;;;0.00;0.00;;;10.90;99.90;;;;;;5005153;28;20032;-73
2023/05/12 07:58:57;;;;;;;0.00;0.00;;;10.80;99.90;;;;;;5002272;28;20025;-73
2023/05/12 08:01:23;;;;;;;0.00;0.00;;;10.90;99.90;;;;;;5016688;28;20027;-73
2023/05/12 08:03:52;;;;;;;0.00;0.00;;;10.90;99.90;;;;;;5005300;28;20018;-73
2023/05/12 08:06:18;;;;;;;0.00;0.00;;;11.00;99.90;;;;;;5000307;28;20025;-73
2023/05/12 08:08:44;;;;;;;0.00;0.00;;;11.00;99.90;;;;;;5001594;28;20029;-73
2023/05/12 08:11:10;;;;;;;0.00;0.00;;;11.10;99.90;;;;;;5001144;28;20567;-72
2023/05/12 08:13:38;;;;;;;0.00;0.00;;;11.00;99.90;;;;;;5004242;28;21710;-73
2023/05/12 08:16:05;;;;;;;0.00;0.00;;;10.90;99.90;;;;;;5021907;28;20018;-72
2023/05/12 08:18:30;;;;;;;0.10;0.10;;;10.90;99.90;;;;;;5005563;28;20013;-73
2023/05/12 08:20:56;;;;;;;0.10;0.10;;;10.80;99.90;;;;;;5003099;28;20084;-72
2023/05/12 08:23:22;;;;;;;0.00;0.00;;;10.90;99.90;;;;;;5006722;28;20073;-73
2023/05/12 08:25:49;;;;;;;0.00;0.00;;;10.90;99.90;;;;;;5019486;28;20141;-73
2023/05/12 08:28:14;;;;;;;0.00;0.00;;;10.90;99.90;;;;;;5022679;28;20025;-73
2023/05/12 08:30:40;;;;;;;0.20;0.20;;;10.80;99.90;;;;;;4996714;28;20375;-73
2023/05/12 08:33:06;;;;;;;0.10;0.10;;;10.90;99.90;;;;;;5006578;28;20033;-72
2023/05/12 08:35:32;;;;;;;0.50;0.50;;;10.90;99.90;;;;;;5007916;28;20038;-72
2023/05/12 08:37:58;;;;;;;0.53;0.53;;;11.10;99.90;;;;;;5009771;28;20038;-72
2023/05/12 08:40:27;;;;;;;0.03;0.03;;;11.20;99.90;;;;;;5011615;28;20029;-73
2023/05/12 08:43:06;;;;;;;0.00;0.00;;;11.20;99.90;;;;;;5020571;28;20632;-72
2023/05/12 08:45:37;;;;;;;0.77;0.52;;;11.20;99.90;;;;;;5009660;28;20033;-73
2023/05/12 08:48:05;;;;;;;0.00;0.00;;;11.20;99.90;;;;;;5008088;28;20089;-72
2023/05/12 08:50:34;;;;;;;0.00;0.00;;;11.20;99.90;;;;;;5013165;28;20022;-73
2023/05/12 08:53:04;;;;;;;0.00;0.00;;;11.10;99.90;;;;;;5017567;28;20025;-73
2023/05/12 08:55:30;;;;;;;0.13;0.13;;;11.10;99.90;;;;;;5010587;28;20021;-73
2023/05/12 08:57:58;;;;;;;;;;;11.00;99.90;;;;;;5016047;28;20026;-74
2023/05/12 09:00:27;;;;;;;;;;;11.00;99.90;;;;;;5006827;28;19909;-73
2023/05/12 09:02:55;;;;;;;0.65;0.20;;;11.10;99.90;;;;;;5006148;28;19909;-74
2023/05/12 09:05:21;;;;;;;0.20;0.15;;;11.00;99.90;;;;;;5012747;28;20348;-73
2023/05/12 09:07:50;;;;;;;0.88;0.88;;;11.00;99.90;;;;;;5008619;28;20021;-73
2023/05/12 09:10:17;;;;;;;0.00;0.00;;;10.90;99.90;;;;;;5008761;28;20022;-73
2023/05/12 09:12:48;;;;;;;0.00;0.00;;;10.90;99.90;;;;;;5017360;28;20020;-73
2023/05/12 09:15:18;;;;;;;0.00;0.00;;;10.90;99.90;;;;;;5010795;28;20029;-73
2023/05/12 09:17:44;;;;;;;0.00;0.00;;;10.90;99.90;;;;;;5006951;28;20052;-74
2023/05/12 09:20:11;;;;;;;0.00;0.00;;;10.90;99.90;;;;;;5021106;28;20072;-73
2023/05/12 09:22:38;;;;;;;0.28;0.28;;;10.80;99.90;;;;;;5003912;28;20030;-73
2023/05/12 09:25:20;;;;;;;0.03;0.03;;;10.90;99.90;;;;;;5017303;28;20025;-73
2023/05/12 09:27:48;;;;;;;0.00;0.00;;;10.90;99.90;;;;;;5008738;28;20041;-73
2023/05/12 09:30:14;;;;;;;0.00;0.00;;;10.80;99.90;;;;;;5005581;28;20018;-73
2023/05/12 09:32:41;;;;;;;0.00;0.00;;;10.90;99.90;;;;;;5008669;28;20026;-73
2023/05/12 09:35:10;;;;;;;;;;;10.90;99.90;;;;;;5022994;28;20383;-71
2023/05/12 09:37:39;;;;;;;0.00;0.00;;;10.70;99.90;;;;;;5008799;28;19909;-72
2023/05/12 09:40:07;;;;;;;0.70;0.52;;;10.70;99.90;;;;;;5001764;28;20968;-72
2023/05/12 09:42:34;;;;;;;0.98;0.55;;;10.80;99.90;;;;;;5007116;28;20037;-73
2023/05/12 09:45:10;;;;;;;0.20;0.20;;;10.90;99.90;;;;;;5029155;28;20071;-72
2023/05/12 09:47:37;;;;;;;0.00;0.00;;;10.80;99.90;;;;;;5010023;28;20025;-72
2023/05/12 09:50:05;;;;;;;0.10;0.10;;;10.70;99.90;;;;;;5007232;28;20017;-72
2023/05/12 09:52:36;;;;;;;0.10;0.10;;;10.60;99.90;;;;;;5007673;28;20029;-71
2023/05/12 09:55:12;;;;;;;0.00;0.00;;;10.50;99.90;;;;;;5001393;28;20026;-70
2023/05/12 09:57:41;;;;;;;0.65;0.32;;;10.50;99.90;;;;;;5023981;28;20829;-71
2023/05/12 10:00:18;;;;;;;0.35;0.05;;;10.50;99.90;;;;;;5009556;28;20030;-71
2023/05/12 10:02:48;;;;;;;0.00;0.00;;;10.50;99.90;;;;;;5005079;28;20022;-71
2023/05/12 10:05:18;;;;;;;0.10;0.10;;;10.50;99.90;;;;;;5007471;28;20028;-70
2023/05/12 10:07:46;;;;;;;0.00;0.00;;;10.70;99.90;;;;;;5008212;28;20406;-70
2023/05/12 10:10:16;;;;;;;0.03;0.03;;;10.70;99.90;;;;;;5018386;28;20794;-73
2023/05/12 10:12:42;;;;;;;0.17;0.17;;;10.70;99.90;;;;;;5008212;28;20022;-73
2023/05/12 10:15:09;;;;;;;0.32;0.32;;;10.80;99.90;;;;;;5010440;28;20025;-72
2023/05/12 10:17:36;;;;;;;0.20;0.13;;;10.80;99.90;;;;;;5009528;28;20484;-73
2023/05/12 10:20:05;;;;;;;0.03;0.03;;;10.70;99.90;;;;;;5003804;28;20618;-73
2023/05/12 10:22:33;;;;;;;0.10;0.10;;;10.80;99.90;;;;;;5011021;28;20042;-71
2023/05/12 10:25:03;;;;;;;0.47;0.10;;;10.80;99.90;;;;;;5008450;28;20391;-71
2023/05/12 10:27:32;;;;;;;0.10;0.10;;;10.80;99.90;;;;;;5005592;28;20014;-72
2023/05/12 10:30:03;;;;;;;0.00;0.00;;;10.70;99.90;;;;;;5017057;28;20977;-71
2023/05/12 10:32:30;;;;;;;0.10;0.10;;;10.80;99.90;;;;;;5006030;28;20033;-72
2023/05/12 10:35:10;;;;;;;0.00;0.00;;;10.90;99.90;;;;;;5004542;28;20026;-71
2023/05/12 10:37:38;;;;;;;1.02;1.00;;;11.00;99.90;;;;;;5020638;28;20022;-72
2023/05/12 10:40:06;;;;;;;0.50;0.38;;;11.20;99.90;;;;;;5009700;28;20526;-71
2023/05/12 10:42:42;;;;;;;0.13;0.13;;;11.30;99.90;;;;;;5015266;28;20042;-71
2023/05/12 10:45:19;;;;;;;0.00;0.00;;;11.10;99.90;;;;;;5013174;28;20060;-72
2023/05/12 10:47:45;;;;;;;0.00;0.00;;;11.30;99.90;;;;;;5025852;28;20391;-71
2023/05/12 10:50:31;;;;;;;;;;;11.40;99.90;;;;;;5005268;28;20422;-73
2023/05/12 10:52:57;;;;;;;0.00;0.00;;;11.40;99.90;;;;;;5003715;28;19955;-72
2023/05/12 10:55:50;;;;;;;0.00;0.00;;;11.40;99.90;;;;;;5006484;28;20041;-73
2023/05/12 10:58:16;;;;;;;0.15;0.15;;;11.40;99.90;;;;;;5004985;28;20049;-73
2023/05/12 11:00:50;;;;;;;0.00;0.00;;;11.30;99.90;;;;;;5002784;28;20022;-73
2023/05/12 11:03:22;;;;;;;0.95;0.47;;;11.40;99.90;;;;;;5005155;28;20022;-73
2023/05/12 11:06:01;;;;;;;0.00;0.00;;;11.50;99.90;;;;;;5014541;28;20033;-69
2023/05/12 11:08:27;;;;;;;0.00;0.00;;;11.50;99.90;;;;;;5003266;28;20072;-69
2023/05/12 11:10:53;;;;;;;0.00;0.00;;;11.40;99.90;;;;;;5006909;28;20032;-69
2023/05/12 11:13:19;;;;;;;0.00;0.00;;;11.30;99.90;;;;;;5003982;28;20030;-69
2023/05/12 11:15:46;;;;;;;;;;;11.20;99.90;;;;;;5010210;28;20025;-70
2023/05/12 11:18:19;;;;;;;0.00;0.00;;;11.30;99.90;;;;;;5001875;28;19983;-70
2023/05/12 11:20:45;;;;;;;0.13;0.00;;;11.20;99.90;;;;;;5003993;28;20022;-69
2023/05/12 11:23:24;;;;;;;0.10;0.10;;;11.20;99.90;;;;;;5031398;28;20032;-70
2023/05/12 11:25:50;;;;;;;0.40;0.25;;;11.20;99.90;;;;;;5021486;28;20033;-70
2023/05/12 11:28:15;;;;;;;0.90;0.70;;;11.10;99.90;;;;;;5003060;28;20018;-70
2023/05/12 11:30:51;;;;;;;0.67;0.33;;;11.00;99.90;;;;;;5004122;28;20029;-71
2023/05/12 11:33:22;;;;;;;0.00;0.00;;;11.00;99.90;;;;;;5002829;28;20033;-70
2023/05/12 11:35:50;;;;;;;0.00;0.00;;;10.90;99.90;;;;;;5005175;28;20097;-70
2023/05/12 11:38:17;;;;;;;0.10;0.10;;;11.00;99.90;;;;;;5004327;28;20026;-70
2023/05/12 11:40:43;;;;;;;0.00;0.00;;;10.80;99.90;;;;;;4997095;28;20387;-70
2023/05/12 11:43:10;;;;;;;0.00;0.00;;;10.90;99.90;;;;;;5006511;28;20026;-69
2023/05/12 11:45:37;;;;;;;;;;;10.90;99.90;;;;;;5001821;28;20476;-73
2023/05/12 11:48:10;;;;;;;0.00;0.00;;;10.90;99.90;;;;;;5011799;28;19917;-72
2023/05/12 11:50:46;;;;;;;0.00;0.00;;;10.90;99.90;;;;;;5002306;28;20018;-73
2023/05/12 11:53:16;;;;;;;0.13;0.13;;;10.80;99.90;;;;;;5000360;28;20014;-72
2023/05/12 11:55:55;;;;;;;0.00;0.00;;;10.80;99.90;;;;;;5003191;28;20022;-72
2023/05/12 11:58:25;;;;;;;0.00;0.00;;;10.70;99.90;;;;;;5010509;28;20017;-73
2023/05/12 12:00:53;;;;;;;0.15;0.15;;;10.80;99.90;;;;;;5005111;28;20025;-72
2023/05/12 12:03:19;;;;;;;0.00;0.00;;;10.80;99.90;;;;;;5006502;28;20468;-72
2023/05/12 12:06:02;;;;;;;0.00;0.00;;;10.80;99.90;;;;;;5007869;28;20087;-72
2023/05/12 12:08:28;;;;;;;0.30;0.30;;;10.70;99.90;;;;;;5002366;28;20041;-72
2023/05/12 12:10:56;;;;;;;0.00;0.00;;;10.70;99.90;;;;;;5005721;28;20478;-72
2023/05/12 12:13:23;;;;;;;0.00;0.00;;;10.70;99.90;;;;;;5005672;28;20768;-72
2023/05/12 12:15:50;;;;;;;0.00;0.00;;;10.60;99.90;;;;;;5002686;28;20049;-72
2023/05/12 12:18:18;;;;;;;0.00;0.00;;;10.60;99.90;;;;;;5017964;28;20503;-71
2023/05/12 12:20:46;;;;;;;0.17;0.10;;;10.70;99.90;;;;;;5004940;28;20026;-72
2023/05/12 12:23:12;;;;;;;0.00;0.00;;;10.60;99.90;;;;;;5007519;28;20731;-72
2023/05/12 12:25:37;;;;;;;0.03;0.03;;;10.70;99.90;;;;;;5008658;28;20065;-73
2023/05/12 12:28:03;;;;;;;0.10;0.10;;;10.80;99.90;;;;;;5010688;28;20485;-71
2023/05/12 12:30:29;;;;;;;0.00;0.00;;;10.70;99.90;;;;;;5021259;28;20013;-71
2023/05/12 12:32:55;;;;;;;0.00;0.00;;;10.70;99.90;;;;;;5012592;28;20049;-72
2023/05/12 12:35:21;;;;;;;0.00;0.00;;;10.60;99.90;;;;;;5003892;28;20034;-72
2023/05/12 12:37:50;;;;;;;0.00;0.00;;;10.60;99.90;;;;;;5003022;28;20088;-72
2023/05/12 12:40:17;;;;;;;0.10;0.10;;;10.70;99.90;;;;;;5009247;28;20083;-71
2023/05/12 12:42:43;;;;;;;0.00;0.00;;;10.60;99.90;;;;;;5012537;28;20025;-72
2023/05/12 12:45:09;;;;;;;0.22;0.22;;;10.50;99.90;;;;;;5010298;28;20029;-71
2023/05/12 12:47:36;;;;;;;0.00;0.00;;;10.60;99.90;;;;;;5009193;28;20061;-72
2023/05/12 12:50:02;;;;;;;0.00;0.00;;;10.70;99.90;;;;;;5005913;28;20029;-72
2023/05/12 12:52:28;;;;;;;0.13;0.13;;;10.80;99.90;;;;;;5004335;28;20022;-72
2023/05/12 12:54:56;;;;;;;0.20;0.20;;;10.80;99.90;;;;;;5004051;28;20038;-72
2023/05/12 12:57:22;;;;;;;0.20;0.20;;;10.90;99.90;;;;;;5014856;28;20026;-72